Flight Track Log - Related Links

Times and Time Zones

All times are in EDT time to prevent confusion due to time zone crossing. See the SWA407 flight status page for this flight to view local times or setup timezone preferences in your user account.

Time Position Orientation Groundspeed Altitude Reporting Facility
EDT Latitude Longitude Course Direction KTS MPH feet Rate Location/Type
Mon 01:27:47 AM 32.7817 -117.2822 305° West 228 262 6,200  Level Los Angeles Center
Mon 01:28:49 AM 32.8250 -117.3397 312° West 245 282 10,600 3,610 Climbing Los Angeles Center
Mon 01:29:50 AM 32.8797 -117.4167 310° West 296 341 13,600 3,541 Climbing Los Angeles Center
Mon 01:30:51 AM 32.9431 -117.5017 312° West 334 384 17,800 4,033 Climbing Los Angeles Center
Mon 01:31:52 AM 33.0394 -117.5831 325° Northwest 373 429 21,800 3,415 Climbing Los Angeles Center
Mon 01:32:54 AM 33.1492 -117.6047 351° North 398 458 24,800 2,736 Climbing Los Angeles Center
Mon 01:33:57 AM 33.2633 -117.6275 351° North 413 475 27,500 2,066 Climbing Los Angeles Center
Mon 01:34:56 AM 33.3817 -117.6506 351° North 426 490 29,000 750 Climbing Los Angeles Center
Mon 01:35:57 AM 33.5025 -117.6731 351° North 438 504 29,000  Level Los Angeles Center
Mon 01:36:59 AM 33.6225 -117.6961 351° North 439 505 29,000  Level Los Angeles Center
Mon 01:38:00 AM 33.7419 -117.7194 351° North 438 504 29,000  Level Los Angeles Center
Mon 01:39:01 AM 33.8864 -117.7492 350° North 442 509 29,000  Level Los Angeles Center
Mon 01:40:02 AM 34.0078 -117.7719 351° North 444 511 29,000  Level Los Angeles Center
Mon 01:41:04 AM 34.1192 -117.7314 17° North 443 510 29,000  Level Los Angeles Center
Mon 01:42:05 AM 34.2042 -117.6189 48° Northeast 454 522 29,000  Level Los Angeles Center
Mon 01:44:07 AM 34.3731 -117.3881 48° Northeast 460 529 29,000  Level Los Angeles Center
Mon 01:45:08 AM 34.4625 -117.2669 48° Northeast 463 533 29,000  Level Los Angeles Center
Mon 01:46:10 AM 34.5478 -117.1503 48° Northeast 466 536 29,000  Level Los Angeles Center
Mon 01:47:11 AM 34.6328 -117.0328 49° Northeast 466 536 29,000 -590 Level Los Angeles Center
Mon 01:48:12 AM 34.7133 -116.9197 49° Northeast 443 510 27,800 -1,131 Descending Los Angeles Center
Mon 01:49:13 AM 34.7906 -116.8133 49° Northeast 423 487 26,700 -885 Descending Los Angeles Center
Mon 01:50:14 AM 34.8786 -116.7344 36° Northeast 396 456 26,000 -344 Descending Los Angeles Center
Mon 01:51:15 AM 34.9842 -116.6372 37° Northeast 410 472 26,000 -393 Level Los Angeles Center
Mon 01:52:16 AM 35.0447 -116.5150 59° Northeast 425 489 25,200 -885 Descending Los Angeles Center
Mon 01:53:17 AM 35.1053 -116.3981 58° Northeast 416 479 24,200 -590 Descending Los Angeles Center
Mon 01:54:18 AM 35.1808 -116.3031 46° Northeast 393 452 24,000 -98 Descending Los Angeles Center
Mon 01:55:19 AM 35.2425 -116.2250 46° Northeast 396 456 24,000 -738 Level Los Angeles Center
Mon 01:56:20 AM 35.3319 -116.1103 46° Northeast 390 449 22,500 -1,659 Descending Los Angeles Center
Mon 01:57:22 AM 35.4056 -116.0206 45° Northeast 376 433 20,600 -1,854 Descending Los Angeles Center
Mon 01:58:23 AM 35.4772 -115.9322 45° Northeast 367 422 18,700 -2,303 Descending Los Angeles Center
Mon 01:59:01 AM 35.5289 -115.8644 47° Northeast 360 414 16,800 -2,459 Descending Los Angeles Center
Mon 01:59:24 AM 35.5503 -115.8367 47° Northeast 353 406 16,200 -1,770 Descending Los Angeles Center
Mon 02:00:02 AM 35.5928 -115.7808 47° Northeast 344 396 15,000 -1,770 Descending Los Angeles Center
Mon 02:00:25 AM 35.6156 -115.7544 43° Northeast 342 394 14,400 -1,900 Descending Los Angeles Center
Mon 02:01:02 AM 35.6575 -115.6994 47° Northeast 334 384 13,100 -1,279 Descending Los Angeles Center
Mon 02:01:26 AM 35.6789 -115.6739 44° Northeast 332 382 13,100  Level Los Angeles Center
Mon 02:02:03 AM 35.7256 -115.6142 46° Northeast 325 374 13,100  Level Los Angeles Center
Mon 02:02:27 AM 35.7519 -115.5831 44° Northeast 328 377 13,100  Level Los Angeles Center
Mon 02:03:04 AM 35.8031 -115.5731 North 307 353 13,100 -98 Level Los Angeles Center
Mon 02:03:28 AM 35.8372 -115.5694 North 310 357 13,000 -98 Descending Los Angeles Center
Mon 02:04:05 AM 35.8881 -115.5669 North 309 356 13,000 98 Level Los Angeles Center
Mon 02:04:29 AM 35.9228 -115.5647 North 308 354 13,100  Climbing Los Angeles Center
Mon 02:05:05 AM 35.9711 -115.5425 20° North 315 362 13,000 -500 Descending Los Angeles Center
Mon 02:05:29 AM 35.9911 -115.5019 59° Northeast 317 365 12,600 -1,397 Descending Los Angeles Center
Mon 02:06:18 AM 36.0158 -115.4192 70° East 323 372 11,300 -1,327 Descending Los Angeles Center
Mon 02:07:13 AM 36.0264 -115.3281 82° East 298 343 10,300 -1,068 Descending Los Angeles Center
Mon 02:07:31 AM 36.0256 -115.3000 92° East 300 345 10,000 -1,100 Descending Los Angeles Center
Mon 02:08:13 AM 36.0197 -115.2267 96° East 292 336 9,200 -984 Descending Los Angeles Center
Mon 02:08:32 AM 36.0186 -115.2019 93° East 294 338 9,000 -545 Descending Los Angeles Center
Mon 02:09:08 AM 36.0144 -115.1433 95° East 262 302 8,700 -492 Descending Los Angeles Center
Mon 02:09:33 AM 36.0131 -115.1133 93° East 272 313 8,500 -689 Descending Los Angeles Center
Mon 02:10:09 AM 36.0083 -115.0656 97° East 233 268 8,000 -787 Descending Los Angeles Center
Mon 02:10:34 AM 36.0069 -115.0364 93° East 240 276 7,700 -1,091 Descending Los Angeles Center
Mon 02:11:15 AM 36.0047 -114.9897 93° East 208 239 6,800 -1,279 Descending Los Angeles Center
Mon 02:11:35 AM 36.0047 -114.9667 90° East 218 251 6,400 -873 Descending Los Angeles Center
Mon 02:12:10 AM 36.0303 -114.9386 42° Northeast 226 260 6,000 -590 Descending Los Angeles Center
Mon 02:12:36 AM 36.0519 -114.9403 356° North 223 257 5,800 -889 Descending Los Angeles Center
Mon 02:13:04 AM 36.0711 -114.9675 311° West 183 211 5,200 -1,180 Descending Los Angeles Center
Mon 02:13:37 AM 36.0753 -114.9894 283° West 188 216 4,600 -1,279 Descending Los Angeles Center
Mon 02:14:05 AM 36.0725 -115.0231 264° West 163 188 3,900 -1,100 Descending Los Angeles Center
Mon 02:14:37 AM 36.0750 -115.0431 279° West 169 194 3,500 -1,000 Descending Los Angeles Center
Mon 02:14:59 AM 36.0731 -115.0653 264° West 140 161 3,000 -787 Descending Los Angeles Center
Mon 02:15:38 AM 36.0739 -115.0869 273° West 149 171 2,700 -590 Descending Los Angeles Center
Mon 02:16:00 AM 36.0739 -115.1078 270° West 123 142 2,400 -492 Descending Los Angeles Center
Mon 02:16:39 AM 36.0739 -115.1322 270° West 136 157 2,200 -308 Descending Los Angeles Center
Mon 02:18:00 AM 36.0667 -115.1500 270° West  Level FlightAware Approximate

Login

Don't have an account? Register now (free) for customized features, flight alerts, and more!